createdAt,value
2023-03-11T00:08:20.527Z,87.21
2023-03-11T00:23:25.760Z,87.35
2023-03-11T00:38:42.868Z,87.35
2023-03-11T00:53:45.877Z,87.44
2023-03-11T01:08:48.434Z,87.30
2023-03-11T01:23:51.137Z,87.38
2023-03-11T01:38:54.125Z,87.72
2023-03-11T01:54:00.771Z,87.96
2023-03-11T02:09:03.989Z,88.05
2023-03-11T02:24:44.870Z,87.90
2023-03-11T02:39:54.447Z,87.79
2023-03-11T02:54:57.987Z,87.93
2023-03-11T03:10:01.290Z,87.87
2023-03-11T03:25:05.042Z,88.05
2023-03-11T03:40:09.312Z,87.80
2023-03-11T03:55:12.016Z,86.13
2023-03-11T04:10:14.667Z,85.05
2023-03-11T04:25:17.547Z,85.04
2023-03-11T04:40:21.902Z,84.92
2023-03-11T04:55:25.190Z,85.17
2023-03-11T05:10:29.194Z,85.36
2023-03-11T05:25:33.020Z,84.91
2023-03-11T05:40:36.159Z,84.78
2023-03-11T05:55:39.069Z,84.31
2023-03-11T06:10:42.854Z,84.61
2023-03-11T06:25:58.970Z,84.90
2023-03-11T06:41:04.926Z,85.06
2023-03-11T06:56:14.540Z,85.59
2023-03-11T07:11:27.443Z,85.31
2023-03-11T07:26:33.899Z,85.56
2023-03-11T07:41:36.605Z,85.80
2023-03-11T07:56:40.733Z,86.17
2023-03-11T08:11:43.687Z,85.89
2023-03-11T08:26:46.574Z,85.34
2023-03-11T08:42:04.153Z,85.70
2023-03-11T08:57:07.605Z,85.29
2023-03-11T09:12:13.776Z,85.69
2023-03-11T09:27:17.066Z,85.05
2023-03-11T09:42:42.265Z,85.01
2023-03-11T09:57:45.636Z,85.08
2023-03-11T10:12:54.839Z,85.46
2023-03-11T10:28:08.049Z,84.64
2023-03-11T10:43:49.338Z,83.85
2023-03-11T11:10:48.712Z,84.24
2023-03-11T11:26:21.332Z,84.28
2023-03-11T11:41:27.975Z,84.08
2023-03-11T11:56:30.744Z,83.89
2023-03-11T12:11:47.542Z,83.72
2023-03-11T12:26:54.171Z,83.88
2023-03-11T12:42:17.804Z,83.53
2023-03-11T12:57:20.528Z,82.79
2023-03-11T13:12:50.619Z,82.14
2023-03-11T13:28:22.799Z,79.57
2023-03-11T13:43:26.227Z,80.45
2023-03-11T13:58:29.586Z,79.81
2023-03-11T14:13:41.118Z,79.45
2023-03-11T14:29:06.644Z,78.10
2023-03-11T14:44:11.346Z,78.04
2023-03-11T14:59:26.310Z,76.55
2023-03-11T15:14:48.097Z,76.18
2023-03-11T15:30:17.869Z,75.33
2023-03-11T15:45:36.567Z,74.92
2023-03-11T16:00:45.213Z,75.89
2023-03-11T16:16:04.595Z,76.29
2023-03-11T16:31:09.127Z,76.64
2023-03-11T16:46:12.100Z,77.25
2023-03-11T17:01:29.601Z,77.69
2023-03-11T17:16:35.515Z,77.73
2023-03-11T17:31:38.510Z,78.18
2023-03-11T17:46:41.482Z,78.47
2023-03-11T18:01:58.595Z,78.81
2023-03-11T18:17:01.328Z,78.41
2023-03-11T18:32:03.909Z,78.19
2023-03-11T18:47:06.813Z,78.00
2023-03-11T19:02:10.878Z,78.03
2023-03-11T19:17:16.223Z,78.09
2023-03-11T19:32:19.074Z,78.11
2023-03-11T19:47:23.850Z,78.35
2023-03-11T20:02:27.303Z,78.43
2023-03-11T20:17:31.739Z,79.12
2023-03-11T20:32:35.262Z,79.20
2023-03-11T20:47:40.410Z,78.87
2023-03-11T21:18:09.442Z,79.10
2023-03-11T21:33:20.490Z,78.57
2023-03-11T21:48:26.978Z,78.71
2023-03-11T22:03:35.295Z,78.74
2023-03-11T22:18:40.760Z,78.49
2023-03-11T22:33:47.052Z,78.27
2023-03-11T22:48:57.141Z,78.53
2023-03-11T23:04:02.630Z,78.66
2023-03-11T23:19:07.453Z,78.93
2023-03-11T23:34:11.937Z,78.90
2023-03-11T23:49:15.883Z,79.43
